createdAt,value
2022-08-11T00:00:32.555Z,18.57
2022-08-11T00:01:32.205Z,18.70
2022-08-11T00:02:32.423Z,18.67
2022-08-11T00:03:43.212Z,18.67
2022-08-11T00:04:34.560Z,18.59
2022-08-11T00:05:32.914Z,18.70
2022-08-11T00:06:33.055Z,18.59
2022-08-11T00:07:33.222Z,18.72
2022-08-11T00:08:33.393Z,18.70
2022-08-11T00:09:39.382Z,18.73
2022-08-11T00:10:34.690Z,18.74
2022-08-11T00:11:33.829Z,18.73
2022-08-11T00:12:34.106Z,18.68
2022-08-11T00:13:34.570Z,18.68
2022-08-11T00:14:37.667Z,18.70
2022-08-11T00:15:35.566Z,18.61
2022-08-11T00:16:35.562Z,18.57
2022-08-11T00:17:34.954Z,18.61
2022-08-11T00:18:35.133Z,18.57
2022-08-11T00:20:12.424Z,18.61
2022-08-11T00:20:36.550Z,18.64
2022-08-11T00:22:03.909Z,18.55
2022-08-11T00:22:37.757Z,18.50
2022-08-11T00:23:37.063Z,18.55
2022-08-11T00:24:53.422Z,18.49
2022-08-11T00:25:37.461Z,18.47
2022-08-11T00:26:37.563Z,18.54
2022-08-11T00:27:37.576Z,18.44
2022-08-11T00:28:37.572Z,18.55
2022-08-11T00:29:37.102Z,18.46
2022-08-11T00:30:38.335Z,18.47
2022-08-11T00:31:37.486Z,18.47
2022-08-11T00:32:37.898Z,18.55
2022-08-11T00:33:44.215Z,18.52
2022-08-11T00:34:39.074Z,18.42
2022-08-11T00:35:55.088Z,18.36
2022-08-11T00:36:39.568Z,18.57
2022-08-11T00:37:38.684Z,18.49
2022-08-11T00:38:39.077Z,18.49
2022-08-11T00:39:39.001Z,18.47
2022-08-11T00:40:39.129Z,18.42
2022-08-11T00:41:39.287Z,18.47
2022-08-11T00:42:39.550Z,18.54
2022-08-11T00:43:40.082Z,18.47
2022-08-11T00:44:39.829Z,18.49
2022-08-11T00:45:40.000Z,18.47
2022-08-11T00:46:40.581Z,18.44
2022-08-11T00:47:40.378Z,18.42
2022-08-11T00:48:40.514Z,18.42
2022-08-11T00:49:40.639Z,18.44
2022-08-11T00:50:40.779Z,18.46
2022-08-11T00:51:56.736Z,18.49
2022-08-11T00:52:42.024Z,18.39
2022-08-11T00:53:43.072Z,18.39
2022-08-11T00:54:41.403Z,18.52
2022-08-11T00:55:41.519Z,18.59
2022-08-11T00:56:42.742Z,18.62
2022-08-11T00:57:41.964Z,18.57
2022-08-11T00:58:42.084Z,18.61
2022-08-11T00:59:43.074Z,18.62
2022-08-11T01:00:42.470Z,18.72
2022-08-11T01:01:42.623Z,18.61
2022-08-11T01:02:42.742Z,18.59
2022-08-11T01:03:42.907Z,18.59
2022-08-11T01:04:43.055Z,18.54
2022-08-11T01:05:43.207Z,18.55
2022-08-11T01:06:44.076Z,18.54
2022-08-11T01:08:01.334Z,18.47
2022-08-11T01:08:44.673Z,18.58
2022-08-11T01:09:43.912Z,18.57
2022-08-11T01:10:44.162Z,18.50
2022-08-11T01:11:55.439Z,18.49
2022-08-11T01:12:46.079Z,18.49
2022-08-11T01:13:44.683Z,18.50
2022-08-11T01:14:44.832Z,18.59
2022-08-11T01:15:57.025Z,18.52
2022-08-11T01:16:46.171Z,18.58
2022-08-11T01:17:45.591Z,18.46
2022-08-11T01:18:45.598Z,18.47
2022-08-11T01:20:48.123Z,18.50
2022-08-11T01:20:49.606Z,18.47
2022-08-11T01:21:47.137Z,18.37
2022-08-11T01:22:46.596Z,18.46
2022-08-11T01:23:47.082Z,18.28
2022-08-11T01:24:46.722Z,18.19
2022-08-11T01:25:57.690Z,18.22
2022-08-11T01:26:48.063Z,18.24
2022-08-11T01:27:47.302Z,18.24
2022-08-11T01:28:47.432Z,18.21
2022-08-11T01:29:49.339Z,18.17
2022-08-11T01:30:47.763Z,18.19
2022-08-11T01:31:49.584Z,18.25
2022-08-11T01:32:48.172Z,18.21
2022-08-11T01:33:49.084Z,18.24
2022-08-11T01:34:48.594Z,18.10
2022-08-11T01:35:48.611Z,18.10
2022-08-11T01:36:53.482Z,18.15
2022-08-11T01:37:49.886Z,18.07
2022-08-11T01:38:50.086Z,17.92
2022-08-11T01:39:49.408Z,17.87
2022-08-11T01:40:49.573Z,17.97
2022-08-11T01:41:49.738Z,17.87
2022-08-11T01:42:49.867Z,17.91
2022-08-11T01:43:50.081Z,17.85
2022-08-11T01:44:50.201Z,17.84
2022-08-11T01:45:50.335Z,17.84
2022-08-11T01:46:50.447Z,17.91
2022-08-11T01:47:52.591Z,17.97
2022-08-11T01:48:50.880Z,17.92
2022-08-11T01:50:09.700Z,17.92
2022-08-11T01:50:52.229Z,17.91
2022-08-11T01:51:51.421Z,17.79
2022-08-11T01:52:51.565Z,17.91
2022-08-11T01:53:52.595Z,17.84
2022-08-11T01:54:52.589Z,17.85
2022-08-11T01:55:52.136Z,17.87
2022-08-11T01:56:53.089Z,17.84
2022-08-11T01:57:52.585Z,17.76
2022-08-11T01:58:52.713Z,17.78
2022-08-11T01:59:52.836Z,17.87
2022-08-11T02:00:53.068Z,17.78
2022-08-11T02:01:53.220Z,17.85
2022-08-11T02:02:53.388Z,17.94
2022-08-11T02:03:54.090Z,17.85
2022-08-11T02:04:54.614Z,17.85
2022-08-11T02:05:53.870Z,17.91
2022-08-11T02:06:54.007Z,17.89
2022-08-11T02:07:54.150Z,18.04
2022-08-11T02:08:54.360Z,17.92
2022-08-11T02:09:54.520Z,17.95
2022-08-11T02:10:55.600Z,18.02
2022-08-11T02:11:54.813Z,17.97
2022-08-11T02:12:55.949Z,17.94
2022-08-11T02:13:55.117Z,18.02
2022-08-11T02:15:05.412Z,18.03
2022-08-11T02:15:56.389Z,18.07
2022-08-11T02:16:55.509Z,18.10
2022-08-11T02:17:55.680Z,18.10
2022-08-11T02:18:55.857Z,18.12
2022-08-11T02:19:56.017Z,18.21
2022-08-11T02:20:56.169Z,18.33
2022-08-11T02:21:57.315Z,18.27
2022-08-11T02:22:56.444Z,18.28
2022-08-11T02:24:05.325Z,18.29
2022-08-11T02:24:57.727Z,18.24
2022-08-11T02:25:57.115Z,18.25
2022-08-11T02:26:57.029Z,18.24
2022-08-11T02:27:57.181Z,18.28
2022-08-11T02:28:57.344Z,18.13
2022-08-11T02:29:57.505Z,18.24
2022-08-11T02:30:57.662Z,18.19
2022-08-11T02:32:08.354Z,18.13
2022-08-11T02:32:58.962Z,18.15
2022-08-11T02:33:58.203Z,18.22
2022-08-11T02:34:59.367Z,18.13
2022-08-11T02:35:59.108Z,18.13
2022-08-11T02:36:58.770Z,18.10
2022-08-11T02:37:58.906Z,18.07
2022-08-11T02:38:59.111Z,18.18
2022-08-11T02:39:59.297Z,18.03
2022-08-11T02:40:59.625Z,18.09
2022-08-11T02:42:00.612Z,18.09
2022-08-11T02:42:59.846Z,18.10
2022-08-11T02:44:00.020Z,18.15
2022-08-11T02:45:01.105Z,18.06
2022-08-11T02:46:00.376Z,18.07
2022-08-11T02:47:00.520Z,18.07
2022-08-11T02:48:00.669Z,18.04
2022-08-11T02:49:01.843Z,17.97
2022-08-11T02:50:06.526Z,17.89
2022-08-11T02:51:02.131Z,17.85
2022-08-11T02:52:01.271Z,17.84
2022-08-11T02:53:01.444Z,17.85
2022-08-11T02:54:01.614Z,17.89
2022-08-11T02:55:02.610Z,18.00
2022-08-11T02:56:01.991Z,17.89
2022-08-11T02:57:02.157Z,17.87
2022-08-11T02:58:02.343Z,17.92
2022-08-11T02:59:02.508Z,17.92
2022-08-11T03:00:02.651Z,17.85
2022-08-11T03:01:02.795Z,17.92
2022-08-11T03:02:05.000Z,17.88
2022-08-11T03:03:03.118Z,17.84
2022-08-11T03:04:03.244Z,17.89
2022-08-11T03:05:03.629Z,17.91
2022-08-11T03:06:04.112Z,18.00
2022-08-11T03:07:03.733Z,17.81
2022-08-11T03:08:04.613Z,17.94
2022-08-11T03:09:04.101Z,17.88
2022-08-11T03:10:04.623Z,17.85
2022-08-11T03:11:04.374Z,17.94
2022-08-11T03:12:04.504Z,17.87
2022-08-11T03:13:04.649Z,17.84
2022-08-11T03:14:04.815Z,18.02
2022-08-11T03:15:04.963Z,17.88
2022-08-11T03:16:05.100Z,17.95
2022-08-11T03:17:06.115Z,17.88
2022-08-11T03:18:05.466Z,17.88
2022-08-11T03:19:05.590Z,17.89
2022-08-11T03:20:06.131Z,17.85
2022-08-11T03:21:05.862Z,17.78
2022-08-11T03:22:06.212Z,17.82
2022-08-11T03:23:06.183Z,17.81
2022-08-11T03:24:07.415Z,17.84
2022-08-11T03:25:09.881Z,17.82
2022-08-11T03:26:08.889Z,17.84
2022-08-11T03:27:07.122Z,17.84
2022-08-11T03:28:07.262Z,17.87
2022-08-11T03:29:07.411Z,17.88
2022-08-11T03:30:07.571Z,17.84
2022-08-11T03:31:07.741Z,17.85
2022-08-11T03:32:07.911Z,18.03
2022-08-11T03:33:08.046Z,18.02
2022-08-11T03:34:08.487Z,18.02
2022-08-11T03:35:08.418Z,18.03
2022-08-11T03:36:08.575Z,18.03
2022-08-11T03:37:16.805Z,18.03
2022-08-11T03:38:09.980Z,18.07
2022-08-11T03:39:09.153Z,18.17
2022-08-11T03:40:09.200Z,18.15
2022-08-11T03:42:02.241Z,18.21
2022-08-11T03:42:10.403Z,18.24
2022-08-11T03:43:10.829Z,18.25
2022-08-11T03:44:10.141Z,18.27
2022-08-11T03:45:10.131Z,18.21
2022-08-11T03:46:10.262Z,18.22
2022-08-11T03:47:10.390Z,18.18
2022-08-11T03:48:10.531Z,18.19
2022-08-11T03:49:10.693Z,18.15
2022-08-11T03:50:10.911Z,18.02
2022-08-11T03:51:11.040Z,17.94
2022-08-11T03:52:11.187Z,18.02
2022-08-11T03:53:11.312Z,18.03
2022-08-11T03:54:11.646Z,17.97
2022-08-11T03:55:11.777Z,17.97
2022-08-11T03:56:11.943Z,17.95
2022-08-11T03:57:12.080Z,17.95
2022-08-11T03:58:12.213Z,18.02
2022-08-11T03:59:12.362Z,18.12
2022-08-11T04:00:12.469Z,18.15
2022-08-11T04:01:12.751Z,18.13
2022-08-11T04:02:12.930Z,18.22
2022-08-11T04:03:13.063Z,18.17
2022-08-11T04:04:13.193Z,18.21
2022-08-11T04:05:14.134Z,18.21
2022-08-11T04:06:13.515Z,18.19
2022-08-11T04:07:17.538Z,18.10
2022-08-11T04:08:13.793Z,18.12
2022-08-11T04:09:13.957Z,18.15
2022-08-11T04:10:14.632Z,18.21
2022-08-11T04:11:14.315Z,18.18
2022-08-11T04:12:14.658Z,18.09
2022-08-11T04:13:15.651Z,18.09
2022-08-11T04:14:15.142Z,18.12
2022-08-11T04:15:15.036Z,18.06
2022-08-11T04:16:15.201Z,18.13
2022-08-11T04:17:15.345Z,18.18
2022-08-11T04:18:15.529Z,18.15
2022-08-11T04:19:15.683Z,18.12
2022-08-11T04:20:15.825Z,18.15
2022-08-11T04:21:15.987Z,18.04
2022-08-11T04:22:17.143Z,18.15
2022-08-11T04:24:34.607Z,18.18
2022-08-11T04:24:37.685Z,18.17
2022-08-11T04:25:18.594Z,18.21
2022-08-11T04:26:18.885Z,18.28
2022-08-11T04:27:17.054Z,18.18
2022-08-11T04:28:29.212Z,18.24
2022-08-11T04:29:18.367Z,18.24
2022-08-11T04:30:18.144Z,18.39
2022-08-11T04:31:50.884Z,18.46
2022-08-11T04:32:18.934Z,18.49
2022-08-11T04:33:19.201Z,18.74
2022-08-11T04:34:18.319Z,18.91
2022-08-11T04:35:18.476Z,19.06
2022-08-11T04:36:18.628Z,19.15
2022-08-11T04:37:18.779Z,19.08
2022-08-11T04:38:19.642Z,19.13
2022-08-11T04:39:19.189Z,19.11
2022-08-11T04:40:19.365Z,18.98
2022-08-11T04:41:19.531Z,18.82
2022-08-11T04:42:20.647Z,18.94
2022-08-11T04:43:20.652Z,19.01
2022-08-11T04:44:20.046Z,18.98
2022-08-11T04:45:20.671Z,18.99
2022-08-11T04:46:20.401Z,19.06
2022-08-11T04:47:20.535Z,19.13
2022-08-11T04:48:20.776Z,19.13
2022-08-11T04:49:26.218Z,19.10
2022-08-11T04:50:22.143Z,19.13
2022-08-11T04:51:21.364Z,19.01
2022-08-11T04:52:22.149Z,18.97
2022-08-11T04:53:21.630Z,18.97
2022-08-11T04:54:26.407Z,19.05
2022-08-11T04:55:23.986Z,19.11
2022-08-11T04:56:22.664Z,19.14
2022-08-11T04:57:22.419Z,19.13
2022-08-11T04:58:31.271Z,19.20
2022-08-11T04:59:24.160Z,19.18
2022-08-11T05:00:22.906Z,19.23
2022-08-11T05:01:23.085Z,19.33
2022-08-11T05:02:24.153Z,19.40
2022-08-11T05:03:23.415Z,19.46
2022-08-11T05:04:23.571Z,19.46
2022-08-11T05:05:24.653Z,19.50
2022-08-11T05:06:23.901Z,19.57
2022-08-11T05:07:24.653Z,19.73
2022-08-11T05:08:24.417Z,19.70
2022-08-11T05:09:24.304Z,19.95
2022-08-11T05:10:24.486Z,19.93
2022-08-11T05:11:24.629Z,20.02
2022-08-11T05:12:25.167Z,19.95
2022-08-11T05:13:24.902Z,19.94
2022-08-11T05:14:25.656Z,19.93
2022-08-11T05:15:25.278Z,19.90
2022-08-11T05:16:26.153Z,20.06
2022-08-11T05:17:25.719Z,20.09
2022-08-11T05:18:25.854Z,20.28
2022-08-11T05:19:26.093Z,20.28
2022-08-11T05:20:26.672Z,20.39
2022-08-11T05:21:26.432Z,20.33
2022-08-11T05:22:26.544Z,20.56
2022-08-11T05:23:27.168Z,20.62
2022-08-11T05:24:26.886Z,20.76
2022-08-11T05:26:25.380Z,20.80
2022-08-11T05:26:46.285Z,20.93
2022-08-11T05:27:29.161Z,20.95
2022-08-11T05:28:27.766Z,21.01
2022-08-11T05:29:27.870Z,21.21
2022-08-11T05:30:28.108Z,21.23
2022-08-11T05:31:28.240Z,21.36
2022-08-11T05:32:28.377Z,21.35
2022-08-11T05:33:28.568Z,21.41
2022-08-11T05:34:28.701Z,21.51
2022-08-11T05:36:00.031Z,21.64
2022-08-11T05:36:30.080Z,21.51
2022-08-11T05:37:29.205Z,21.56
2022-08-11T05:38:29.350Z,21.51
2022-08-11T05:39:33.889Z,21.64
2022-08-11T05:40:30.727Z,21.74
2022-08-11T05:41:30.665Z,21.74
2022-08-11T05:42:30.722Z,21.59
2022-08-11T05:43:31.168Z,21.53
2022-08-11T05:44:30.511Z,21.57
2022-08-11T05:46:02.929Z,21.75
2022-08-11T05:46:31.771Z,21.78
2022-08-11T05:47:30.994Z,21.79
2022-08-11T05:48:31.135Z,21.85
2022-08-11T05:49:31.834Z,22.02
2022-08-11T05:50:33.194Z,22.19
2022-08-11T05:51:31.702Z,22.19
2022-08-11T05:52:32.177Z,22.23
2022-08-11T05:53:43.668Z,22.23
2022-08-11T05:54:33.196Z,22.07
2022-08-11T05:55:33.168Z,21.95
2022-08-11T05:56:33.173Z,21.79
2022-08-11T05:57:42.343Z,21.72
2022-08-11T05:58:36.982Z,21.82
2022-08-11T05:59:34.007Z,21.71
2022-08-11T06:00:33.220Z,21.72
2022-08-11T06:01:33.442Z,21.69
2022-08-11T06:02:33.523Z,21.69
2022-08-11T06:03:33.698Z,21.59
2022-08-11T06:04:33.850Z,21.75
2022-08-11T06:05:37.213Z,21.72
2022-08-11T06:06:35.106Z,21.90
2022-08-11T06:07:49.627Z,22.09
2022-08-11T06:08:35.473Z,22.16
2022-08-11T06:09:34.592Z,22.32
2022-08-11T06:10:35.673Z,22.22
2022-08-11T06:11:43.190Z,22.22
2022-08-11T06:12:36.164Z,22.44
2022-08-11T06:13:35.333Z,22.56
2022-08-11T06:14:35.460Z,22.65
2022-08-11T06:15:35.707Z,22.80
2022-08-11T06:16:36.227Z,23.01
2022-08-11T06:17:39.091Z,23.02
2022-08-11T06:18:36.177Z,23.05
2022-08-11T06:19:36.319Z,23.19
2022-08-11T06:20:36.441Z,23.08
2022-08-11T06:21:36.567Z,23.20
2022-08-11T06:22:37.836Z,23.17
2022-08-11T06:23:36.903Z,23.14
2022-08-11T06:24:37.067Z,23.15
2022-08-11T06:25:37.183Z,23.17
2022-08-11T06:26:49.626Z,23.02
2022-08-11T06:27:40.196Z,23.02
2022-08-11T06:28:37.791Z,22.94
2022-08-11T06:29:47.911Z,22.99
2022-08-11T06:30:39.155Z,23.05
2022-08-11T06:31:38.388Z,23.02
2022-08-11T06:32:38.711Z,23.08
2022-08-11T06:33:38.725Z,23.19
2022-08-11T06:34:39.687Z,23.26
2022-08-11T06:35:39.052Z,23.31
2022-08-11T06:36:39.237Z,23.38
2022-08-11T06:37:39.378Z,23.53
2022-08-11T06:38:39.537Z,23.61
2022-08-11T06:39:39.722Z,23.65
2022-08-11T06:40:39.906Z,23.71
2022-08-11T06:41:40.069Z,23.70
2022-08-11T06:42:40.212Z,23.79
2022-08-11T06:43:40.372Z,23.89
2022-08-11T06:44:42.235Z,23.97
2022-08-11T06:45:40.698Z,23.86
2022-08-11T06:46:40.851Z,23.92
2022-08-11T06:47:40.979Z,24.02
2022-08-11T06:48:41.690Z,24.12
2022-08-11T06:49:41.299Z,24.10
2022-08-11T06:50:42.218Z,24.10
2022-08-11T06:51:41.819Z,24.17
2022-08-11T06:52:42.266Z,24.24
2022-08-11T06:53:41.933Z,24.31
2022-08-11T06:54:43.690Z,24.39
2022-08-11T06:55:56.597Z,24.64
2022-08-11T06:56:43.651Z,24.95
2022-08-11T06:57:43.211Z,25.12
2022-08-11T06:58:43.099Z,25.24
2022-08-11T06:59:44.296Z,25.56
2022-08-11T07:00:43.432Z,25.97
2022-08-11T07:01:43.664Z,26.15
2022-08-11T07:02:43.755Z,26.55
2022-08-11T07:03:44.696Z,26.91
2022-08-11T07:04:44.102Z,27.69
2022-08-11T07:05:44.267Z,27.84
2022-08-11T07:06:50.886Z,27.71
2022-08-11T07:07:45.547Z,27.26
2022-08-11T07:08:44.781Z,26.87
2022-08-11T07:09:44.949Z,26.74
2022-08-11T07:10:45.086Z,26.86
2022-08-11T07:11:45.320Z,27.10
2022-08-11T07:12:45.480Z,26.95
2022-08-11T07:13:46.205Z,26.74
2022-08-11T07:14:45.861Z,26.65
2022-08-11T07:16:11.643Z,26.50
2022-08-11T07:16:47.702Z,26.44
2022-08-11T07:17:47.209Z,26.44
2022-08-11T07:18:47.200Z,26.37
2022-08-11T07:19:46.611Z,26.22
2022-08-11T07:20:46.769Z,26.18
2022-08-11T07:22:03.157Z,26.06
2022-08-11T07:22:48.049Z,26.05
2022-08-11T07:23:47.713Z,26.11
2022-08-11T07:25:01.457Z,25.99
2022-08-11T07:25:49.228Z,25.93
2022-08-11T07:26:47.833Z,26.11
2022-08-11T07:27:48.003Z,26.09
2022-08-11T07:28:48.216Z,26.25
2022-08-11T07:29:48.370Z,26.27
2022-08-11T07:30:48.539Z,26.31
2022-08-11T07:31:50.209Z,26.27
2022-08-11T07:32:49.707Z,26.39
2022-08-11T07:34:05.516Z,26.52
2022-08-11T07:34:50.714Z,26.65
2022-08-11T07:35:49.347Z,26.76
2022-08-11T07:36:49.530Z,27.17
2022-08-11T07:37:50.209Z,27.46
2022-08-11T07:38:50.904Z,27.92
2022-08-11T07:39:50.101Z,27.73
2022-08-11T07:40:50.192Z,27.64
2022-08-11T07:41:51.221Z,27.48
2022-08-11T07:42:50.503Z,27.59
2022-08-11T07:43:50.690Z,27.85
2022-08-11T07:44:50.863Z,27.89
2022-08-11T07:45:51.712Z,27.95
2022-08-11T07:46:52.215Z,27.82
2022-08-11T07:47:51.385Z,27.71
2022-08-11T07:48:51.562Z,27.62
2022-08-11T07:49:52.227Z,27.48
2022-08-11T07:50:56.018Z,27.50
2022-08-11T07:51:53.092Z,27.53
2022-08-11T07:52:52.226Z,27.57
2022-08-11T07:53:58.748Z,27.41
2022-08-11T07:54:53.617Z,27.39
2022-08-11T07:55:53.716Z,27.39
2022-08-11T07:56:54.732Z,27.51
2022-08-11T07:58:14.304Z,27.51
2022-08-11T07:58:59.228Z,27.58
2022-08-11T08:00:03.491Z,27.46
2022-08-11T08:00:54.809Z,27.53
2022-08-11T08:01:53.979Z,27.46
2022-08-11T08:02:54.726Z,27.57
2022-08-11T08:03:55.221Z,27.64
2022-08-11T08:04:54.469Z,27.64
2022-08-11T08:05:54.656Z,27.50
2022-08-11T08:06:54.809Z,27.35
2022-08-11T08:07:55.727Z,27.36
2022-08-11T08:08:55.175Z,27.38
2022-08-11T08:09:55.343Z,27.36
2022-08-11T08:10:55.469Z,27.23
2022-08-11T08:11:55.740Z,27.38
2022-08-11T08:12:55.773Z,27.28
2022-08-11T08:13:56.725Z,27.16
2022-08-11T08:14:56.097Z,27.29
2022-08-11T08:15:56.256Z,27.36
2022-08-11T08:16:56.505Z,27.23
2022-08-11T08:18:09.439Z,27.41
2022-08-11T08:18:58.729Z,27.43
2022-08-11T08:19:57.734Z,27.48
2022-08-11T08:20:58.236Z,27.64
2022-08-11T08:22:04.381Z,27.54
2022-08-11T08:22:58.585Z,27.61
2022-08-11T08:23:57.790Z,27.59
2022-08-11T08:24:57.933Z,27.64
2022-08-11T08:25:58.124Z,27.48
2022-08-11T08:26:58.282Z,27.47
2022-08-11T08:27:58.427Z,27.38
2022-08-11T08:28:59.232Z,27.46
2022-08-11T08:29:59.729Z,27.53
2022-08-11T08:30:58.984Z,27.57
2022-08-11T08:31:59.215Z,27.50
2022-08-11T08:32:59.427Z,27.43
2022-08-11T08:33:59.562Z,27.36
2022-08-11T08:34:59.710Z,27.32
2022-08-11T08:35:59.856Z,27.33
2022-08-11T08:37:00.008Z,27.36
2022-08-11T08:38:00.743Z,27.28
2022-08-11T08:39:00.407Z,27.33
2022-08-11T08:40:00.574Z,27.26
2022-08-11T08:41:01.246Z,27.42
2022-08-11T08:42:01.259Z,27.48
2022-08-11T08:43:01.038Z,27.36
2022-08-11T08:44:27.366Z,27.46
2022-08-11T08:45:03.353Z,27.35
2022-08-11T08:46:01.607Z,27.36
2022-08-11T08:47:01.792Z,27.43
2022-08-11T08:48:02.739Z,27.38
2022-08-11T08:49:02.146Z,27.46
2022-08-11T08:50:02.322Z,27.38
2022-08-11T08:51:02.515Z,27.20
2022-08-11T08:52:29.473Z,27.36
2022-08-11T08:53:05.754Z,27.33
2022-08-11T08:54:03.001Z,27.38
2022-08-11T08:55:03.162Z,27.42
2022-08-11T08:56:03.331Z,27.50
2022-08-11T08:57:03.489Z,27.76
2022-08-11T08:58:03.629Z,27.70
2022-08-11T08:59:03.796Z,27.70
2022-08-11T09:00:04.747Z,27.74
2022-08-11T09:01:04.169Z,27.66
2022-08-11T09:02:04.758Z,27.69
2022-08-11T09:03:22.923Z,27.58
2022-08-11T09:04:11.444Z,27.51
2022-08-11T09:05:06.938Z,27.29
2022-08-11T09:06:05.170Z,26.99
2022-08-11T09:07:05.292Z,26.98
2022-08-11T09:08:05.762Z,27.01
2022-08-11T09:09:05.636Z,26.95
2022-08-11T09:10:06.749Z,27.11
2022-08-11T09:11:09.414Z,27.29
2022-08-11T09:12:07.137Z,27.39
2022-08-11T09:13:07.250Z,27.54
2022-08-11T09:14:10.430Z,27.86
2022-08-11T09:15:09.324Z,28.10
2022-08-11T09:16:07.262Z,28.23
2022-08-11T09:17:07.161Z,28.56
2022-08-11T09:18:07.319Z,28.69
2022-08-11T09:19:07.455Z,28.53
2022-08-11T09:20:08.692Z,28.51
2022-08-11T09:21:07.920Z,28.47
2022-08-11T09:22:08.754Z,28.54
2022-08-11T09:24:17.033Z,28.28
2022-08-11T09:25:10.612Z,28.11
2022-08-11T09:26:09.268Z,28.01
2022-08-11T09:27:09.755Z,28.11
2022-08-11T09:28:09.265Z,28.14
2022-08-11T09:29:09.770Z,28.01
2022-08-11T09:30:09.515Z,27.76
2022-08-11T09:31:09.691Z,27.41
2022-08-11T09:32:09.836Z,27.21
2022-08-11T09:33:09.978Z,27.24
2022-08-11T09:34:10.161Z,27.23
2022-08-11T09:35:11.256Z,27.51
2022-08-11T09:36:10.481Z,27.70
2022-08-11T09:37:10.627Z,27.76
2022-08-11T09:38:10.789Z,27.84
2022-08-11T09:39:11.071Z,27.84
2022-08-11T09:40:11.119Z,27.86
2022-08-11T09:41:11.772Z,27.86
2022-08-11T09:42:16.639Z,27.80
2022-08-11T09:43:12.790Z,27.53
2022-08-11T09:44:12.760Z,27.47
2022-08-11T09:45:12.212Z,27.59
2022-08-11T09:46:12.380Z,27.69
2022-08-11T09:47:12.508Z,27.67
2022-08-11T09:48:13.259Z,27.71
2022-08-11T09:49:13.004Z,27.77
2022-08-11T09:50:13.228Z,27.62
2022-08-11T09:51:13.775Z,27.61
2022-08-11T09:52:14.267Z,27.50
2022-08-11T09:53:36.083Z,27.39
2022-08-11T09:54:15.964Z,27.31
2022-08-11T09:55:14.762Z,27.32
2022-08-11T09:56:14.418Z,27.42
2022-08-11T09:57:14.546Z,27.41
2022-08-11T09:58:42.432Z,27.41
2022-08-11T09:59:15.911Z,27.53
2022-08-11T10:00:15.510Z,27.62
2022-08-11T10:01:15.339Z,27.46
2022-08-11T10:02:15.551Z,27.35
2022-08-11T10:03:15.696Z,27.35
2022-08-11T10:04:15.821Z,27.24
2022-08-11T10:05:15.961Z,27.42
2022-08-11T10:06:16.110Z,27.82
2022-08-11T10:07:16.360Z,27.99
2022-08-11T10:08:17.278Z,28.17
2022-08-11T10:09:16.685Z,28.10
2022-08-11T10:10:17.813Z,28.09
2022-08-11T10:11:17.789Z,28.17
2022-08-11T10:12:18.291Z,28.10
2022-08-11T10:14:31.260Z,28.19
2022-08-11T10:14:33.368Z,28.10
2022-08-11T10:15:18.908Z,28.03
2022-08-11T10:16:18.021Z,27.92
2022-08-11T10:17:18.175Z,28.01
2022-08-11T10:18:18.381Z,28.11
2022-08-11T10:19:18.544Z,28.13
2022-08-11T10:20:22.681Z,28.03
2022-08-11T10:21:20.880Z,27.98
2022-08-11T10:22:20.100Z,27.96
2022-08-11T10:23:19.346Z,27.88
2022-08-11T10:24:19.504Z,27.82
2022-08-11T10:25:20.131Z,27.66
2022-08-11T10:26:20.778Z,27.62
2022-08-11T10:27:20.787Z,27.61
2022-08-11T10:28:36.369Z,27.73
2022-08-11T10:29:21.370Z,27.82
2022-08-11T10:30:21.500Z,27.96
2022-08-11T10:31:20.617Z,28.16
2022-08-11T10:32:21.277Z,28.17
2022-08-11T10:33:37.071Z,28.13
2022-08-11T10:34:22.135Z,28.14
2022-08-11T10:35:21.363Z,28.31
2022-08-11T10:36:21.516Z,28.41
2022-08-11T10:37:21.704Z,28.50
2022-08-11T10:38:21.890Z,28.47
2022-08-11T10:39:22.130Z,28.43
2022-08-11T10:40:22.784Z,28.43
2022-08-11T10:41:22.414Z,28.46
2022-08-11T10:42:41.440Z,28.36
2022-08-11T10:44:02.403Z,28.10
2022-08-11T10:44:24.022Z,27.85
2022-08-11T10:45:23.785Z,27.82
2022-08-11T10:46:29.563Z,27.80
2022-08-11T10:47:24.418Z,27.94
2022-08-11T10:48:23.569Z,27.79
2022-08-11T10:49:23.802Z,27.79
2022-08-11T10:50:23.967Z,27.67
2022-08-11T10:51:48.005Z,27.74
2022-08-11T10:52:25.266Z,27.67
2022-08-11T10:53:24.385Z,27.64
2022-08-11T10:54:24.574Z,27.77
2022-08-11T10:55:24.807Z,28.01
2022-08-11T10:56:24.945Z,28.11
2022-08-11T10:57:25.115Z,28.35
2022-08-11T10:58:25.325Z,28.65
2022-08-11T10:59:25.448Z,28.85
2022-08-11T11:00:25.644Z,28.97
2022-08-11T11:01:26.450Z,29.16
2022-08-11T11:02:25.895Z,29.18
2022-08-11T11:03:26.076Z,29.23
2022-08-11T11:04:26.802Z,29.16
2022-08-11T11:05:26.807Z,29.15
2022-08-11T11:06:29.329Z,29.01
2022-08-11T11:07:26.770Z,29.13
2022-08-11T11:08:27.806Z,29.08
2022-08-11T11:09:27.797Z,29.07
2022-08-11T11:10:27.313Z,29.03
2022-08-11T11:11:27.331Z,28.82
2022-08-11T11:12:27.815Z,28.85
2022-08-11T11:13:27.714Z,28.93
2022-08-11T11:14:27.840Z,28.80
2022-08-11T11:15:27.999Z,28.87
2022-08-11T11:16:28.800Z,28.90
2022-08-11T11:17:28.333Z,29.00
2022-08-11T11:18:28.495Z,29.07
2022-08-11T11:19:28.605Z,28.85
2022-08-11T11:20:36.587Z,28.66
2022-08-11T11:21:30.806Z,28.68
2022-08-11T11:22:29.192Z,28.53
2022-08-11T11:23:29.363Z,28.66
2022-08-11T11:24:30.302Z,28.75
2022-08-11T11:25:30.331Z,28.90
2022-08-11T11:26:29.796Z,29.04
2022-08-11T11:27:30.805Z,28.87
2022-08-11T11:28:30.169Z,28.70
2022-08-11T11:29:30.323Z,28.62
2022-08-11T11:30:31.310Z,28.68
2022-08-11T11:31:30.666Z,28.70
2022-08-11T11:32:30.819Z,28.77
2022-08-11T11:33:30.955Z,28.73
2022-08-11T11:34:31.823Z,28.60
2022-08-11T11:35:31.806Z,28.60
2022-08-11T11:36:32.310Z,28.65
2022-08-11T11:37:31.815Z,28.73
2022-08-11T11:38:31.755Z,28.70
2022-08-11T11:39:32.345Z,28.88
2022-08-11T11:40:32.854Z,29.01
2022-08-11T11:41:32.225Z,28.96
2022-08-11T11:42:32.480Z,29.22
2022-08-11T11:43:32.584Z,29.40
2022-08-11T11:44:33.376Z,29.34
2022-08-11T11:45:32.904Z,29.34
2022-08-11T11:46:33.002Z,29.16
2022-08-11T11:47:34.329Z,28.95
2022-08-11T11:48:34.314Z,28.87
2022-08-11T11:49:33.518Z,29.10
2022-08-11T11:50:34.316Z,29.34
2022-08-11T11:51:33.807Z,29.29
2022-08-11T11:52:34.067Z,29.41
2022-08-11T11:53:34.116Z,29.38
2022-08-11T11:54:34.234Z,29.47
2022-08-11T11:55:34.495Z,29.72
2022-08-11T11:56:35.326Z,29.87
2022-08-11T11:57:35.317Z,29.53
2022-08-11T11:58:34.920Z,29.55
2022-08-11T11:59:35.337Z,29.57
2022-08-11T12:00:35.370Z,29.65
2022-08-11T12:01:35.319Z,29.79
2022-08-11T12:02:35.460Z,29.70
2022-08-11T12:03:36.671Z,29.78
2022-08-11T12:04:35.801Z,29.84
2022-08-11T12:05:35.954Z,29.87
2022-08-11T12:06:37.608Z,29.89
2022-08-11T12:07:36.336Z,29.70
2022-08-11T12:08:36.473Z,29.60
2022-08-11T12:09:36.629Z,29.81
2022-08-11T12:10:37.349Z,29.75
2022-08-11T12:11:36.961Z,29.77
2022-08-11T12:12:37.111Z,29.92
2022-08-11T12:13:37.823Z,30.15
2022-08-11T12:14:37.485Z,29.92
2022-08-11T12:16:05.369Z,29.56
2022-08-11T12:16:38.770Z,29.38
2022-08-11T12:17:38.183Z,29.35
2022-08-11T12:18:38.827Z,29.44
2022-08-11T12:19:38.337Z,29.34
2022-08-11T12:20:39.350Z,29.47
2022-08-11T12:21:39.325Z,29.56
2022-08-11T12:22:39.330Z,29.47
2022-08-11T12:23:38.849Z,29.57
2022-08-11T12:24:39.340Z,29.77
2022-08-11T12:25:39.184Z,29.82
2022-08-11T12:26:39.360Z,30.12
2022-08-11T12:27:40.505Z,30.46
2022-08-11T12:28:39.688Z,30.57
2022-08-11T12:29:41.387Z,30.86
2022-08-11T12:30:40.104Z,30.71
2022-08-11T12:31:40.831Z,30.65
2022-08-11T12:32:40.765Z,30.52
2022-08-11T12:33:40.566Z,30.54
2022-08-11T12:34:40.797Z,30.40
2022-08-11T12:35:40.873Z,30.33
2022-08-11T12:36:42.097Z,30.24
2022-08-11T12:37:41.769Z,29.89
2022-08-11T12:38:41.567Z,30.08
2022-08-11T12:40:10.689Z,30.12
2022-08-11T12:41:13.714Z,30.03
2022-08-11T12:41:44.223Z,29.96
2022-08-11T12:42:42.360Z,29.78
2022-08-11T12:43:43.368Z,29.87
2022-08-11T12:44:43.340Z,29.90
2022-08-11T12:45:43.001Z,29.84
2022-08-11T12:46:43.170Z,29.74
2022-08-11T12:47:43.334Z,29.79
2022-08-11T12:49:00.986Z,29.90
2022-08-11T12:49:45.655Z,29.99
2022-08-11T12:50:44.849Z,30.08
2022-08-11T12:52:11.213Z,30.15
2022-08-11T12:52:45.219Z,30.03
2022-08-11T12:53:44.397Z,30.18
2022-08-11T12:54:45.337Z,30.31
2022-08-11T12:56:03.852Z,30.36